EDT,Max TemperatureF,Mean TemperatureF,Min TemperatureF,Max Dew PointF,MeanDew PointF,Min DewpointF,Max Humidity, Mean Humidity, Min Humidity, Max Sea Level PressureIn, Mean Sea Level PressureIn, Min Sea Level PressureIn, Max VisibilityMiles, Mean VisibilityMiles, Min VisibilityMiles, Max Wind SpeedMPH, Mean Wind SpeedMPH, Max Gust SpeedMPH,PrecipitationIn, CloudCover, Events, WindDirDegrees
2013-9-1,91,82,73,76,73,68,100,78,56,29.94,29.89,29.81,10,6,1,21,6,28,0.46,4,Rain-Thunderstorm,223
2013-9-2,89,81,73,76,74,70,100,80,59,29.90,29.86,29.81,10,6,0,20,6,26,0.43,5,Fog-Rain-Thunderstorm,215
2013-9-3,88,80,71,75,71,66,94,80,65,29.94,29.86,29.81,10,9,5,18,4,24,T,1,Rain-Thunderstorm,209
2013-9-4,92,80,67,77,70,66,100,75,50,30.07,30.01,29.94,10,8,2,9,2,16,0.00,1,,29
2013-9-5,92,80,68,74,71,63,100,69,38,30.09,30.05,30.01,10,6,0,9,2,20,0.00,4,Fog,294
2013-9-6,87,75,63,66,64,61,93,69,45,30.14,30.08,30.05,10,10,7,16,6,20,0.00,0,,26
2013-9-7,86,75,64,65,61,55,93,65,37,30.12,30.05,29.98,10,10,9,9,3,17,0.00,0,,49
2013-9-8,89,76,62,69,65,61,93,68,43,29.99,29.95,29.89,10,9,4,12,3,15,0.00,0,,268
2013-9-9,91,78,64,71,67,63,100,72,44,30.15,30.07,29.98,10,8,4,13,3,15,0.00,0,,125
2013-9-10,91,78,65,72,67,64,100,71,41,30.24,30.19,30.15,10,4,1,9,2,18,0.00,0,,126
2013-9-11,91,78,64,71,66,59,100,67,34,30.22,30.17,30.09,10,6,2,9,2,15,0.00,0,,140
2013-9-12,92,79,66,70,67,65,100,71,41,30.09,29.96,29.84,10,8,3,13,5,16,0.00,1,,227
2013-9-13,90,80,69,70,64,56,97,67,36,29.85,29.79,29.75,10,9,5,13,5,15,0.00,1,,291
2013-9-14,81,73,65,57,55,51,68,55,42,30.12,29.99,29.85,10,10,10,18,9,25,0.00,1,,36
2013-9-15,85,74,62,68,62,55,93,71,48,30.21,30.15,30.11,10,10,10,10,4,15,0.00,2,,88
2013-9-16,89,77,65,73,67,62,100,73,45,30.14,30.10,30.02,10,7,1,16,4,22,0.00,3,,338
2013-9-17,81,72,62,62,55,49,73,54,35,30.28,30.22,30.15,10,10,10,17,9,23,0.00,3,,52
2013-9-18,79,67,54,54,51,47,86,60,33,30.28,30.22,30.16,10,10,10,13,6,16,0.00,0,,32
2013-9-19,82,68,53,61,56,51,93,66,39,30.19,30.14,30.09,10,10,8,9,2,12,0.00,2,,44
2013-9-20,80,71,62,65,63,59,93,78,62,30.10,30.04,29.96,10,9,5,10,4,14,0.00,5,,128
2013-9-21,86,76,65,71,67,64,93,72,51,29.96,29.84,29.72,10,8,3,12,4,17,T,4,Rain,173
2013-9-22,78,71,63,72,67,61,93,77,60,29.88,29.72,29.64,10,7,2,17,7,23,T,8,Rain,337
2013-9-23,78,67,56,61,56,53,100,72,43,30.07,30.00,29.89,10,9,5,12,4,16,0.00,2,,38
2013-9-24,78,65,51,59,53,50,100,72,43,30.09,30.04,29.96,10,7,1,13,2,15,0.00,1,,108
2013-9-25,77,65,52,62,57,52,100,75,49,29.95,29.90,29.86,10,8,4,14,3,21,0.15,4,,72
2013-9-26,80,72,63,63,58,50,100,68,35,30.00,29.91,29.86,10,8,2,15,5,20,0.11,3,Rain,35
2013-9-27,79,68,57,59,56,53,93,68,43,30.16,30.08,30.00,10,10,10,18,8,24,0.00,1,,33
2013-9-28,78,67,55,57,55,53,93,69,45,30.21,30.16,30.13,10,10,10,20,8,24,0.00,2,,23
2013-9-29,77,65,53,57,54,49,100,69,38,30.15,30.09,30.03,10,10,10,14,4,18,0.00,1,,19
2013-9-30,78,66,53,57,54,51,93,66,39,30.08,30.04,30.00,10,10,10,12,3,16,0.00,2,,14